Time;durP1;ratioP1;P1;durP2;ratioP2;P2;SDS_P1;SDS_P2;PMS_P1;PMS_P2;Temp;Humidity;BMP_temperature;BMP_pressure;BME280_temperature;BME280_humidity;BME280_pressure;Samples;Min_cycle;Max_cycle;Signal;HPM_P1;HPM_P2
2023/09/15 00:00:29;;;;;;;14.57;8.40;;;;;;;;;;10448755;27;20070;-65
2023/09/15 00:05:29;;;;;;;11.38;7.72;;;;;;;;;;10451918;27;20527;-65
2023/09/15 00:10:29;;;;;;;13.00;8.45;;;;;;;;;;10455522;27;20480;-66
2023/09/15 00:15:27;;;;;;;9.38;7.78;;;;;;;;;;10457021;27;20078;-66
2023/09/15 00:20:26;;;;;;;10.45;8.45;;;;;;;;;;10462544;27;20529;-66
2023/09/15 00:25:26;;;;;;;9.55;8.25;;;;;;;;;;10457305;27;20070;-66
2023/09/15 00:30:27;;;;;;;12.38;9.02;;;;;;;;;;10458164;27;20471;-66
2023/09/15 00:35:28;;;;;;;11.50;8.43;;;;;;;;;;10436103;27;20089;-65
2023/09/15 00:40:27;;;;;;;14.07;7.80;;;;;;;;;;10457235;27;20070;-65
2023/09/15 00:45:26;;;;;;;15.35;9.32;;;;;;;;;;10448439;27;20482;-65
2023/09/15 00:50:26;;;;;;;12.60;8.73;;;;;;;;;;10445762;27;20081;-66
2023/09/15 00:55:25;;;;;;;15.10;9.75;;;;;;;;;;10457040;27;20062;-65
2023/09/15 01:00:23;;;;;;;8.27;7.43;;;;;;;;;;10457607;27;20081;-65
2023/09/15 01:05:24;;;;;;;11.00;8.27;;;;;;;;;;10437249;27;20079;-66
2023/09/15 01:10:24;;;;;;;14.35;9.10;;;;;;;;;;10441585;27;20070;-66
2023/09/15 01:15:27;;;;;;;9.25;8.18;;;;;;;;;;10445296;27;20486;-65
2023/09/15 01:20:34;;;;;;;8.77;7.88;;;;;;;;;;10440652;27;20074;-67
2023/09/15 01:25:51;;;;;;;10.93;8.75;;;;;;;;;;10436665;27;20074;-66
2023/09/15 01:30:52;;;;;;;12.27;8.13;;;;;;;;;;10451365;27;20085;-66
2023/09/15 01:35:50;;;;;;;11.23;7.93;;;;;;;;;;10456073;27;20472;-65
2023/09/15 01:40:48;;;;;;;13.77;9.20;;;;;;;;;;10443658;27;20074;-65
2023/09/15 01:45:47;;;;;;;10.57;8.43;;;;;;;;;;10454852;27;20066;-65
2023/09/15 01:50:47;;;;;;;14.45;9.32;;;;;;;;;;10456675;27;20082;-66
2023/09/15 01:55:46;;;;;;;13.05;8.52;;;;;;;;;;10433257;27;20078;-66
2023/09/15 02:00:44;;;;;;;9.38;7.65;;;;;;;;;;10455325;27;20511;-66
2023/09/15 02:05:42;;;;;;;11.15;8.43;;;;;;;;;;10440013;27;20055;-66
2023/09/15 02:10:42;;;;;;;13.27;7.90;;;;;;;;;;10442586;27;20077;-66
2023/09/15 02:15:40;;;;;;;8.55;7.57;;;;;;;;;;10453197;27;20082;-67
2023/09/15 02:20:40;;;;;;;7.20;6.60;;;;;;;;;;10456544;27;20085;-66
2023/09/15 02:25:39;;;;;;;15.82;7.60;;;;;;;;;;10455569;27;20074;-66
2023/09/15 02:30:39;;;;;;;8.07;6.97;;;;;;;;;;10453066;27;20083;-67
2023/09/15 02:35:38;;;;;;;9.90;6.93;;;;;;;;;;10434436;27;20066;-68
2023/09/15 02:40:36;;;;;;;10.32;7.35;;;;;;;;;;10453738;27;20067;-66
2023/09/15 02:45:36;;;;;;;10.25;8.13;;;;;;;;;;10454260;27;20071;-67
2023/09/15 02:50:42;;;;;;;8.48;7.32;;;;;;;;;;10441898;27;20071;-65
2023/09/15 02:55:41;;;;;;;9.07;6.90;;;;;;;;;;10448050;27;20521;-65
2023/09/15 03:00:39;;;;;;;8.93;6.45;;;;;;;;;;10434266;27;20108;-65
2023/09/15 03:05:38;;;;;;;14.18;7.22;;;;;;;;;;10431259;27;20078;-65
2023/09/15 03:10:38;;;;;;;7.80;7.00;;;;;;;;;;10436453;27;20510;-65
2023/09/15 03:15:39;;;;;;;8.05;7.18;;;;;;;;;;10453337;27;20070;-66
2023/09/15 03:20:39;;;;;;;9.20;7.07;;;;;;;;;;10435035;27;20078;-66
2023/09/15 03:25:39;;;;;;;9.57;7.00;;;;;;;;;;10433200;27;20148;-67
2023/09/15 03:30:37;;;;;;;12.30;6.95;;;;;;;;;;10451575;27;20082;-68
2023/09/15 03:35:39;;;;;;;9.43;6.82;;;;;;;;;;10441633;27;20093;-66
2023/09/15 03:40:38;;;;;;;8.80;6.90;;;;;;;;;;10450474;27;20070;-66
2023/09/15 03:45:37;;;;;;;10.07;7.00;;;;;;;;;;10432798;27;20515;-66
2023/09/15 03:50:35;;;;;;;9.50;7.50;;;;;;;;;;10433359;27;20083;-66
2023/09/15 03:55:33;;;;;;;8.95;7.13;;;;;;;;;;10440334;27;20085;-67
2023/09/15 04:00:34;;;;;;;8.40;6.72;;;;;;;;;;10437316;27;20639;-66
2023/09/15 04:05:32;;;;;;;9.07;6.43;;;;;;;;;;10434955;27;20480;-67
2023/09/15 04:10:32;;;;;;;7.85;6.75;;;;;;;;;;10438451;27;20074;-67
2023/09/15 04:15:31;;;;;;;8.88;7.07;;;;;;;;;;10449918;27;20066;-67
2023/09/15 04:20:30;;;;;;;10.07;6.80;;;;;;;;;;10444754;27;20071;-65
2023/09/15 04:25:44;;;;;;;9.40;6.78;;;;;;;;;;10450128;27;20591;-65
2023/09/15 04:30:43;;;;;;;7.05;6.45;;;;;;;;;;10438949;27;20527;-66
2023/09/15 04:35:44;;;;;;;10.70;7.10;;;;;;;;;;10434346;27;20074;-65
2023/09/15 04:40:43;;;;;;;9.63;7.05;;;;;;;;;;10446259;27;20071;-66
2023/09/15 04:45:42;;;;;;;8.85;6.90;;;;;;;;;;10436726;27;20077;-66
2023/09/15 04:50:40;;;;;;;9.48;7.03;;;;;;;;;;10452142;27;20058;-66
2023/09/15 04:55:40;;;;;;;11.65;6.78;;;;;;;;;;10438798;27;20561;-66
2023/09/15 05:00:40;;;;;;;10.40;6.85;;;;;;;;;;10443367;27;20499;-66
2023/09/15 05:05:39;;;;;;;13.02;6.40;;;;;;;;;;10447122;27;20139;-66
2023/09/15 05:10:37;;;;;;;9.60;6.70;;;;;;;;;;10459182;27;20074;-66
2023/09/15 05:15:38;;;;;;;9.77;7.10;;;;;;;;;;10439107;27;20472;-67
2023/09/15 05:20:37;;;;;;;14.68;7.53;;;;;;;;;;10441751;27;20078;-66
2023/09/15 05:25:36;;;;;;;10.10;6.35;;;;;;;;;;10461267;27;20155;-65
2023/09/15 05:30:36;;;;;;;12.38;6.40;;;;;;;;;;10445782;27;20102;-65
2023/09/15 05:35:35;;;;;;;11.20;6.60;;;;;;;;;;10458091;27;20070;-66
2023/09/15 05:40:34;;;;;;;14.45;6.38;;;;;;;;;;10455576;27;20086;-66
2023/09/15 05:45:36;;;;;;;11.45;6.97;;;;;;;;;;10437992;27;20066;-65
2023/09/15 05:50:34;;;;;;;7.75;6.63;;;;;;;;;;10456517;27;20070;-66
2023/09/15 05:55:33;;;;;;;7.72;5.57;;;;;;;;;;10453849;27;20062;-65
2023/09/15 06:00:31;;;;;;;12.32;7.03;;;;;;;;;;10451961;27;20074;-66
2023/09/15 06:05:31;;;;;;;8.02;6.97;;;;;;;;;;10457966;27;20734;-64
2023/09/15 06:10:29;;;;;;;9.60;6.38;;;;;;;;;;10450052;27;20081;-65
2023/09/15 06:15:28;;;;;;;6.97;6.38;;;;;;;;;;10449751;27;20063;-66
2023/09/15 06:20:30;;;;;;;7.43;6.03;;;;;;;;;;10456369;27;20089;-66
2023/09/15 06:25:31;;;;;;;11.73;6.00;;;;;;;;;;10453482;27;20066;-66
2023/09/15 06:30:30;;;;;;;7.75;6.25;;;;;;;;;;10459079;27;20098;-66
2023/09/15 06:35:28;;;;;;;9.90;6.35;;;;;;;;;;10449156;27;20074;-66
2023/09/15 06:40:27;;;;;;;10.40;6.68;;;;;;;;;;10447918;27;20071;-65
2023/09/15 06:45:26;;;;;;;7.68;6.85;;;;;;;;;;10452387;27;20535;-65
2023/09/15 06:50:25;;;;;;;19.90;7.75;;;;;;;;;;10440225;27;20078;-66
2023/09/15 06:55:23;;;;;;;7.30;6.43;;;;;;;;;;10452224;27;20071;-66
2023/09/15 07:00:21;;;;;;;7.70;6.22;;;;;;;;;;10453132;27;20073;-65
2023/09/15 07:05:21;;;;;;;10.38;6.60;;;;;;;;;;10454045;27;20067;-66
2023/09/15 07:10:19;;;;;;;10.52;6.05;;;;;;;;;;10452717;27;20071;-66
2023/09/15 07:15:18;;;;;;;8.68;7.20;;;;;;;;;;10452400;27;20572;-66
2023/09/15 07:20:16;;;;;;;9.02;6.93;;;;;;;;;;10452971;27;20078;-66
2023/09/15 07:25:16;;;;;;;8.68;6.93;;;;;;;;;;10450341;27;20081;-65
2023/09/15 07:30:15;;;;;;;9.13;6.20;;;;;;;;;;10438586;27;20081;-66
2023/09/15 07:35:14;;;;;;;7.82;6.72;;;;;;;;;;10448686;27;20519;-67
2023/09/15 07:40:12;;;;;;;7.65;6.30;;;;;;;;;;10444298;27;20100;-66
2023/09/15 07:45:12;;;;;;;8.13;6.53;;;;;;;;;;10452884;27;20440;-66
2023/09/15 07:50:16;;;;;;;9.30;5.45;;;;;;;;;;10448505;27;20071;-66
2023/09/15 07:55:15;;;;;;;8.55;6.22;;;;;;;;;;10452504;27;20075;-67
2023/09/15 08:00:15;;;;;;;8.80;6.80;;;;;;;;;;10457507;27;20059;-67
2023/09/15 08:05:13;;;;;;;12.32;6.05;;;;;;;;;;10451895;27;20071;-66
2023/09/15 08:10:12;;;;;;;8.52;6.65;;;;;;;;;;10432483;27;20078;-66
2023/09/15 08:15:10;;;;;;;10.63;5.55;;;;;;;;;;10452044;27;20063;-67
2023/09/15 08:20:11;;;;;;;7.50;5.72;;;;;;;;;;10452653;27;20059;-67
2023/09/15 08:25:14;;;;;;;9.23;6.72;;;;;;;;;;10453994;27;20062;-65
2023/09/15 08:30:14;;;;;;;;;;;;;;;;;;10457768;27;20659;-67
2023/09/15 08:35:14;;;;;;;9.90;5.70;;;;;;;;;;10444279;27;20002;-67
2023/09/15 08:40:13;;;;;;;8.85;6.38;;;;;;;;;;10451397;27;20089;-66
2023/09/15 08:45:12;;;;;;;13.80;5.13;;;;;;;;;;10464603;27;20085;-64
2023/09/15 08:50:11;;;;;;;17.00;5.55;;;;;;;;;;10464879;27;20514;-67
2023/09/15 08:55:10;;;;;;;11.05;5.78;;;;;;;;;;10460222;27;20097;-66
2023/09/15 09:00:09;;;;;;;6.65;5.30;;;;;;;;;;10456035;27;20070;-66
2023/09/15 09:05:08;;;;;;;11.68;5.40;;;;;;;;;;10460688;27;20722;-66
2023/09/15 09:10:06;;;;;;;7.70;5.10;;;;;;;;;;10456712;27;20187;-66
2023/09/15 09:15:06;;;;;;;8.00;4.97;;;;;;;;;;10456439;27;20070;-66
2023/09/15 09:20:05;;;;;;;10.52;5.22;;;;;;;;;;10459481;27;20070;-65
2023/09/15 09:25:04;;;;;;;6.00;5.25;;;;;;;;;;10460374;27;20070;-66
2023/09/15 09:30:03;;;;;;;7.60;5.28;;;;;;;;;;10457123;27;20086;-66
2023/09/15 09:35:03;;;;;;;8.02;5.70;;;;;;;;;;10458420;27;20074;-66
2023/09/15 09:40:01;;;;;;;8.23;4.55;;;;;;;;;;10461677;27;20066;-66
2023/09/15 09:45:00;;;;;;;13.90;5.40;;;;;;;;;;10458690;27;20082;-67
2023/09/15 09:49:58;;;;;;;7.93;5.10;;;;;;;;;;10460139;27;20073;-67
2023/09/15 09:54:58;;;;;;;7.88;4.85;;;;;;;;;;10460222;27;20454;-67
2023/09/15 09:59:56;;;;;;;7.10;5.50;;;;;;;;;;10452079;27;20066;-67
2023/09/15 10:04:54;;;;;;;6.93;5.28;;;;;;;;;;10455717;27;20082;-66
2023/09/15 10:09:53;;;;;;;9.48;5.43;;;;;;;;;;10457937;27;20079;-66
2023/09/15 10:14:53;;;;;;;5.82;5.30;;;;;;;;;;10458526;27;20073;-67
2023/09/15 10:19:52;;;;;;;8.98;5.88;;;;;;;;;;10457760;27;20534;-66
2023/09/15 10:24:55;;;;;;;12.70;5.82;;;;;;;;;;10454751;27;20079;-65
2023/09/15 10:29:54;;;;;;;15.63;9.13;;;;;;;;;;10461401;27;20084;-66
2023/09/15 10:34:52;;;;;;;6.38;5.78;;;;;;;;;;10458509;27;20324;-65
2023/09/15 10:39:58;;;;;;;8.68;4.93;;;;;;;;;;10456199;27;20085;-65
2023/09/15 10:44:57;;;;;;;10.38;5.65;;;;;;;;;;10454776;27;20077;-66
2023/09/15 10:49:56;;;;;;;6.65;4.75;;;;;;;;;;10457616;27;21017;-66
2023/09/15 10:54:55;;;;;;;7.63;5.65;;;;;;;;;;10457005;27;20062;-66
2023/09/15 10:59:54;;;;;;;8.02;5.00;;;;;;;;;;10456354;27;20051;-66
2023/09/15 11:04:54;;;;;;;6.00;5.25;;;;;;;;;;10455497;27;20066;-66
2023/09/15 11:09:56;;;;;;;6.50;5.32;;;;;;;;;;10457145;27;20077;-65
2023/09/15 11:14:56;;;;;;;6.03;5.53;;;;;;;;;;10455645;27;20439;-66
2023/09/15 11:19:57;;;;;;;8.52;5.45;;;;;;;;;;10455389;27;20074;-65
2023/09/15 11:24:57;;;;;;;11.45;6.00;;;;;;;;;;10454681;27;20608;-66
2023/09/15 11:30:14;;;;;;;14.20;5.85;;;;;;;;;;10452127;27;20557;-66
2023/09/15 11:35:14;;;;;;;12.32;7.10;;;;;;;;;;10438890;27;20118;-66
2023/09/15 11:40:20;;;;;;;6.45;5.85;;;;;;;;;;10454721;27;20066;-67
2023/09/15 11:45:18;;;;;;;7.40;5.50;;;;;;;;;;10450400;27;20151;-65
2023/09/15 11:50:19;;;;;;;8.35;5.93;;;;;;;;;;10452508;27;20055;-66
2023/09/15 11:55:18;;;;;;;6.85;5.38;;;;;;;;;;10454833;27;20070;-66
2023/09/15 12:00:17;;;;;;;9.43;6.75;;;;;;;;;;10454447;27;20430;-66
2023/09/15 12:05:17;;;;;;;6.43;5.80;;;;;;;;;;10453885;27;20081;-66
2023/09/15 12:10:17;;;;;;;9.25;5.68;;;;;;;;;;10466280;27;20062;-67
2023/09/15 12:15:16;;;;;;;8.13;7.30;;;;;;;;;;10463374;27;20449;-66
2023/09/15 12:20:14;;;;;;;8.05;6.70;;;;;;;;;;10458675;27;20071;-67
2023/09/15 12:25:14;;;;;;;8.27;7.47;;;;;;;;;;10461940;27;20077;-67
2023/09/15 12:30:15;;;;;;;7.47;6.18;;;;;;;;;;10462420;27;20106;-65
2023/09/15 12:35:14;;;;;;;6.97;5.90;;;;;;;;;;10464762;27;20073;-66
2023/09/15 12:40:13;;;;;;;8.77;7.05;;;;;;;;;;10461745;27;20062;-65
2023/09/15 12:45:13;;;;;;;13.02;6.78;;;;;;;;;;10459377;27;20455;-65
2023/09/15 12:50:13;;;;;;;6.95;6.35;;;;;;;;;;10455535;27;20066;-67
2023/09/15 12:55:13;;;;;;;9.20;6.57;;;;;;;;;;10462910;27;20516;-66
2023/09/15 13:00:11;;;;;;;7.20;6.43;;;;;;;;;;10460340;27;20071;-66
2023/09/15 13:05:11;;;;;;;12.45;7.28;;;;;;;;;;10460411;27;20112;-66
2023/09/15 13:10:12;;;;;;;8.93;6.20;;;;;;;;;;10460872;27;20077;-65
2023/09/15 13:15:11;;;;;;;10.43;6.05;;;;;;;;;;10460173;27;20075;-66
2023/09/15 13:20:09;;;;;;;7.55;6.35;;;;;;;;;;10458411;27;20454;-66
2023/09/15 13:25:08;;;;;;;7.28;6.35;;;;;;;;;;10459149;27;20102;-65
2023/09/15 13:30:09;;;;;;;8.13;6.00;;;;;;;;;;10460829;27;20051;-66
2023/09/15 13:35:09;;;;;;;6.95;5.50;;;;;;;;;;10463415;27;20510;-70
2023/09/15 13:40:11;;;;;;;10.90;5.68;;;;;;;;;;10460297;27;20062;-68
2023/09/15 13:45:11;;;;;;;8.65;5.85;;;;;;;;;;10459763;27;20093;-67
2023/09/15 13:50:10;;;;;;;10.48;6.15;;;;;;;;;;10455764;27;20073;-67
2023/09/15 13:55:08;;;;;;;7.82;5.60;;;;;;;;;;10461080;27;20495;-67
2023/09/15 14:00:09;;;;;;;9.23;4.78;;;;;;;;;;10461013;27;20063;-68
2023/09/15 14:05:09;;;;;;;7.05;4.70;;;;;;;;;;10457651;27;20078;-67
2023/09/15 14:10:08;;;;;;;5.63;5.03;;;;;;;;;;10458753;27;20089;-67
2023/09/15 14:15:09;;;;;;;11.82;6.28;;;;;;;;;;10453847;27;20082;-67
2023/09/15 14:20:10;;;;;;;15.05;6.28;;;;;;;;;;10456417;27;20074;-67
2023/09/15 14:25:08;;;;;;;7.95;4.80;;;;;;;;;;10459214;27;20077;-67
2023/09/15 14:30:07;;;;;;;8.05;4.72;;;;;;;;;;10454509;27;20090;-68
2023/09/15 14:35:06;;;;;;;12.88;5.63;;;;;;;;;;10459861;27;20086;-68
2023/09/15 14:40:06;;;;;;;12.40;6.47;;;;;;;;;;10457502;27;20621;-67
2023/09/15 14:45:05;;;;;;;5.72;5.28;;;;;;;;;;10457615;27;20062;-67
2023/09/15 14:50:05;;;;;;;8.70;5.13;;;;;;;;;;10454910;27;20074;-68
2023/09/15 14:55:04;;;;;;;8.95;5.90;;;;;;;;;;10454021;27;20183;-68
2023/09/15 15:00:04;;;;;;;9.75;5.35;;;;;;;;;;10455307;27;20455;-67
2023/09/15 15:05:03;;;;;;;6.03;5.05;;;;;;;;;;10450756;27;20079;-67
2023/09/15 15:10:02;;;;;;;5.55;4.68;;;;;;;;;;10453210;27;20475;-67
2023/09/15 15:15:00;;;;;;;5.97;4.90;;;;;;;;;;10458560;27;20074;-67
2023/09/15 15:19:59;;;;;;;9.48;5.38;;;;;;;;;;10453443;27;20058;-68
2023/09/15 15:24:58;;;;;;;7.45;4.70;;;;;;;;;;10458380;27;20082;-69
2023/09/15 15:29:57;;;;;;;6.75;4.18;;;;;;;;;;10458717;27;20071;-67
2023/09/15 15:34:55;;;;;;;8.65;4.85;;;;;;;;;;10458543;27;20533;-66
2023/09/15 15:39:55;;;;;;;6.90;4.22;;;;;;;;;;10460716;27;20085;-66
2023/09/15 15:44:54;;;;;;;12.05;4.72;;;;;;;;;;10454403;27;20074;-66
2023/09/15 15:49:52;;;;;;;7.95;4.85;;;;;;;;;;10455410;27;20070;-67
2023/09/15 15:54:50;;;;;;;8.15;4.90;;;;;;;;;;10455697;27;20070;-66
2023/09/15 15:59:50;;;;;;;17.05;5.57;;;;;;;;;;10451808;27;20058;-67
2023/09/15 16:04:50;;;;;;;5.82;4.95;;;;;;;;;;10455390;27;20077;-67
2023/09/15 16:09:48;;;;;;;6.68;5.47;;;;;;;;;;10455497;27;20108;-67
2023/09/15 16:14:46;;;;;;;13.02;6.15;;;;;;;;;;10445154;27;20058;-67
2023/09/15 16:19:46;;;;;;;12.07;6.65;;;;;;;;;;10454548;27;20057;-67
2023/09/15 16:24:45;;;;;;;14.35;6.93;;;;;;;;;;10451816;27;20082;-66
2023/09/15 16:29:43;;;;;;;9.38;7.72;;;;;;;;;;10453276;27;20140;-65
2023/09/15 16:34:42;;;;;;;11.48;7.60;;;;;;;;;;10451679;27;20098;-67
2023/09/15 16:39:42;;;;;;;9.27;8.27;;;;;;;;;;10453115;27;20482;-67
2023/09/15 16:44:40;;;;;;;11.80;8.80;;;;;;;;;;10451596;27;20070;-66
2023/09/15 16:49:38;;;;;;;9.57;7.88;;;;;;;;;;10452748;27;20063;-67
2023/09/15 16:54:37;;;;;;;13.48;9.48;;;;;;;;;;10457730;27;20062;-66
2023/09/15 16:59:37;;;;;;;14.85;8.95;;;;;;;;;;10460841;27;20094;-66
2023/09/15 17:04:38;;;;;;;12.52;8.27;;;;;;;;;;10459104;27;20063;-66
2023/09/15 17:09:36;;;;;;;13.55;8.75;;;;;;;;;;10462567;27;20066;-67
2023/09/15 17:14:34;;;;;;;11.90;8.32;;;;;;;;;;10459661;27;20062;-67
2023/09/15 17:19:34;;;;;;;12.98;7.93;;;;;;;;;;10460876;27;20059;-67
2023/09/15 17:24:32;;;;;;;11.07;8.13;;;;;;;;;;10445313;27;20471;-67
2023/09/15 17:29:30;;;;;;;14.70;8.68;;;;;;;;;;10465364;27;20079;-67
2023/09/15 17:34:29;;;;;;;14.75;8.73;;;;;;;;;;10462396;27;20081;-67
2023/09/15 17:39:28;;;;;;;16.88;9.60;;;;;;;;;;10460912;27;20067;-66
2023/09/15 17:44:26;;;;;;;14.30;8.50;;;;;;;;;;10452140;27;20518;-67
2023/09/15 17:49:25;;;;;;;17.52;8.93;;;;;;;;;;10456553;27;20073;-66
2023/09/15 17:54:24;;;;;;;14.80;9.05;;;;;;;;;;10437968;27;20468;-67
2023/09/15 17:59:24;;;;;;;10.57;8.60;;;;;;;;;;10460544;27;20083;-67
2023/09/15 18:04:23;;;;;;;16.75;8.32;;;;;;;;;;10460959;27;20066;-65
2023/09/15 18:09:21;;;;;;;9.32;6.90;;;;;;;;;;10455644;27;20074;-66
2023/09/15 18:14:19;;;;;;;6.93;6.32;;;;;;;;;;10456923;27;20463;-67
2023/09/15 18:19:19;;;;;;;5.97;5.40;;;;;;;;;;10454977;27;20073;-67
2023/09/15 18:24:17;;;;;;;8.73;5.60;;;;;;;;;;10461391;27;20059;-68
2023/09/15 18:29:16;;;;;;;5.68;5.18;;;;;;;;;;10457417;27;20082;-68
2023/09/15 18:34:16;;;;;;;6.15;5.50;;;;;;;;;;10454364;27;20183;-67
2023/09/15 18:39:16;;;;;;;5.50;5.10;;;;;;;;;;10458518;27;20078;-65
2023/09/15 18:44:14;;;;;;;8.90;5.22;;;;;;;;;;10456505;27;20071;-67
2023/09/15 18:49:13;;;;;;;6.95;6.35;;;;;;;;;;10456378;27;20108;-66
2023/09/15 18:54:11;;;;;;;5.90;5.40;;;;;;;;;;10458112;27;20066;-66
2023/09/15 18:59:14;;;;;;;5.70;5.20;;;;;;;;;;10454265;27;20082;-66
2023/09/15 19:04:14;;;;;;;6.35;5.75;;;;;;;;;;10436685;27;20078;-66
2023/09/15 19:09:12;;;;;;;6.25;5.63;;;;;;;;;;10458648;27;20076;-65
2023/09/15 19:14:11;;;;;;;6.70;6.10;;;;;;;;;;10452105;27;20116;-65
2023/09/15 19:19:10;;;;;;;8.05;5.97;;;;;;;;;;10459524;27;20066;-66
2023/09/15 19:24:08;;;;;;;6.35;5.75;;;;;;;;;;10455470;27;20073;-66
2023/09/15 19:29:08;;;;;;;11.70;6.15;;;;;;;;;;10438306;27;20550;-66
2023/09/15 19:34:06;;;;;;;7.65;5.93;;;;;;;;;;10452405;27;20054;-66
2023/09/15 19:39:06;;;;;;;6.80;6.20;;;;;;;;;;10456227;27;20521;-65
2023/09/15 19:44:04;;;;;;;7.85;6.85;;;;;;;;;;10457080;27;20149;-65
2023/09/15 19:49:03;;;;;;;10.75;6.93;;;;;;;;;;10457409;27;20090;-66
2023/09/15 19:54:01;;;;;;;7.72;5.90;;;;;;;;;;10456690;27;20077;-66
2023/09/15 19:59:00;;;;;;;5.88;5.18;;;;;;;;;;10438282;27;20507;-65
2023/09/15 20:03:59;;;;;;;6.20;5.60;;;;;;;;;;10433945;27;20075;-66
2023/09/15 20:08:58;;;;;;;6.35;5.05;;;;;;;;;;10457073;27;20050;-65
2023/09/15 20:13:57;;;;;;;6.18;5.30;;;;;;;;;;10449176;27;20087;-66
2023/09/15 20:18:57;;;;;;;7.32;5.05;;;;;;;;;;10458792;27;20073;-67
2023/09/15 20:23:55;;;;;;;6.28;5.68;;;;;;;;;;10438357;27;20082;-67
2023/09/15 20:28:55;;;;;;;7.18;6.43;;;;;;;;;;10461445;27;20086;-66
2023/09/15 20:33:54;;;;;;;6.65;6.05;;;;;;;;;;10461845;27;20085;-66
2023/09/15 20:38:53;;;;;;;6.28;5.75;;;;;;;;;;10463086;27;20063;-66
2023/09/15 20:43:55;;;;;;;7.93;5.68;;;;;;;;;;10460091;27;20067;-66
2023/09/15 20:48:54;;;;;;;10.55;6.78;;;;;;;;;;10462080;27;20071;-67
2023/09/15 20:53:54;;;;;;;7.28;6.50;;;;;;;;;;10457213;27;20086;-66
2023/09/15 20:58:52;;;;;;;7.60;6.88;;;;;;;;;;10456885;27;20077;-67
2023/09/15 21:03:50;;;;;;;9.20;7.95;;;;;;;;;;10463066;27;20109;-66
2023/09/15 21:08:49;;;;;;;8.75;7.57;;;;;;;;;;10439519;27;20523;-65
2023/09/15 21:13:49;;;;;;;13.02;7.93;;;;;;;;;;10460353;27;20066;-66
2023/09/15 21:18:47;;;;;;;8.55;7.75;;;;;;;;;;10464256;27;20521;-65
2023/09/15 21:23:48;;;;;;;10.00;8.32;;;;;;;;;;10455400;27;20425;-66
2023/09/15 21:28:47;;;;;;;8.18;7.38;;;;;;;;;;10450211;27;20480;-67
2023/09/15 21:33:46;;;;;;;10.35;7.65;;;;;;;;;;10455467;27;20070;-66
2023/09/15 21:38:46;;;;;;;10.30;7.55;;;;;;;;;;10449687;27;20070;-66
2023/09/15 21:43:45;;;;;;;9.63;7.78;;;;;;;;;;10452683;27;20546;-66
2023/09/15 21:48:44;;;;;;;11.80;6.43;;;;;;;;;;10455542;27;20086;-66
2023/09/15 21:53:43;;;;;;;8.45;6.15;;;;;;;;;;10458005;27;20066;-64
2023/09/15 21:58:42;;;;;;;7.70;6.75;;;;;;;;;;10459079;27;20534;-66
2023/09/15 22:03:42;;;;;;;8.82;7.20;;;;;;;;;;10457934;27;20066;-67
2023/09/15 22:08:41;;;;;;;8.52;7.68;;;;;;;;;;10459101;27;20066;-66
2023/09/15 22:13:43;;;;;;;10.10;6.85;;;;;;;;;;10460335;27;20067;-66
2023/09/15 22:18:41;;;;;;;7.32;6.63;;;;;;;;;;10457596;27;20070;-67
2023/09/15 22:23:39;;;;;;;9.18;6.97;;;;;;;;;;10455257;27;20592;-66
2023/09/15 22:28:38;;;;;;;9.48;7.30;;;;;;;;;;10459189;27;20086;-65
2023/09/15 22:33:37;;;;;;;7.18;6.45;;;;;;;;;;10455502;27;20062;-67
2023/09/15 22:38:36;;;;;;;7.13;6.43;;;;;;;;;;10452363;27;20070;-66
2023/09/15 22:43:35;;;;;;;6.82;6.22;;;;;;;;;;10447826;27;20063;-66
2023/09/15 22:48:35;;;;;;;9.65;7.82;;;;;;;;;;10449303;27;20077;-66
2023/09/15 22:53:35;;;;;;;7.80;6.70;;;;;;;;;;10460686;27;20074;-66
2023/09/15 22:58:33;;;;;;;10.48;7.05;;;;;;;;;;10456788;27;20522;-66
2023/09/15 23:03:32;;;;;;;8.38;7.45;;;;;;;;;;10456837;27;20495;-67
2023/09/15 23:08:31;;;;;;;7.43;6.80;;;;;;;;;;10456392;27;20078;-66
2023/09/15 23:13:31;;;;;;;9.70;8.25;;;;;;;;;;10456073;27;20066;-66
2023/09/15 23:18:29;;;;;;;7.05;6.45;;;;;;;;;;10453070;27;20064;-65
2023/09/15 23:23:28;;;;;;;9.93;8.02;;;;;;;;;;10446185;27;20103;-67
2023/09/15 23:28:26;;;;;;;10.45;8.68;;;;;;;;;;10458222;27;20086;-66
2023/09/15 23:33:26;;;;;;;8.98;8.13;;;;;;;;;;10454955;27;20071;-65
2023/09/15 23:38:24;;;;;;;9.07;8.20;;;;;;;;;;10456032;27;20077;-66
2023/09/15 23:43:22;;;;;;;10.35;8.70;;;;;;;;;;10454491;27;20903;-67
2023/09/15 23:48:21;;;;;;;9.95;8.95;;;;;;;;;;10455055;27;20081;-67
2023/09/15 23:53:20;;;;;;;9.20;8.27;;;;;;;;;;10454207;27;20071;-65
2023/09/15 23:58:18;;;;;;;10.32;9.07;;;;;;;;;;10453815;27;20058;-66
